sensor_id;sensor_type;location;lat;lon;timestamp;P1;durP1;ratioP1;P2;durP2;ratioP2
80272;SDS011;69574;45.328;9.598;2023-07-20T00:01:55;9.30;;;5.28;;
80272;SDS011;69574;45.328;9.598;2023-07-20T00:04:21;8.50;;;5.63;;
80272;SDS011;69574;45.328;9.598;2023-07-20T00:06:46;12.63;;;5.35;;
80272;SDS011;69574;45.328;9.598;2023-07-20T00:09:12;34.00;;;7.57;;
80272;SDS011;69574;45.328;9.598;2023-07-20T00:11:38;10.05;;;6.40;;
80272;SDS011;69574;45.328;9.598;2023-07-20T00:14:04;9.73;;;6.53;;
80272;SDS011;69574;45.328;9.598;2023-07-20T00:16:29;12.52;;;7.05;;
80272;SDS011;69574;45.328;9.598;2023-07-20T00:18:57;11.90;;;6.95;;
80272;SDS011;69574;45.328;9.598;2023-07-20T00:21:22;11.82;;;7.07;;
80272;SDS011;69574;45.328;9.598;2023-07-20T00:23:48;13.50;;;7.07;;
80272;SDS011;69574;45.328;9.598;2023-07-20T00:26:14;17.83;;;8.18;;
80272;SDS011;69574;45.328;9.598;2023-07-20T00:28:39;13.10;;;7.07;;
80272;SDS011;69574;45.328;9.598;2023-07-20T00:31:05;15.32;;;7.75;;
80272;SDS011;69574;45.328;9.598;2023-07-20T00:33:31;16.00;;;7.80;;
80272;SDS011;69574;45.328;9.598;2023-07-20T00:35:58;17.35;;;8.27;;
80272;SDS011;69574;45.328;9.598;2023-07-20T00:38:24;10.95;;;7.32;;
80272;SDS011;69574;45.328;9.598;2023-07-20T00:40:49;11.70;;;7.00;;
80272;SDS011;69574;45.328;9.598;2023-07-20T00:43:15;11.55;;;7.20;;
80272;SDS011;69574;45.328;9.598;2023-07-20T00:45:41;12.50;;;7.35;;
80272;SDS011;69574;45.328;9.598;2023-07-20T00:48:07;13.75;;;7.70;;
80272;SDS011;69574;45.328;9.598;2023-07-20T00:50:33;10.10;;;6.55;;
80272;SDS011;69574;45.328;9.598;2023-07-20T00:53:01;13.88;;;7.82;;
80272;SDS011;69574;45.328;9.598;2023-07-20T00:55:30;11.07;;;7.70;;
80272;SDS011;69574;45.328;9.598;2023-07-20T00:57:56;11.55;;;7.70;;
80272;SDS011;69574;45.328;9.598;2023-07-20T01:00:22;12.05;;;7.15;;
80272;SDS011;69574;45.328;9.598;2023-07-20T01:02:47;12.85;;;6.85;;
80272;SDS011;69574;45.328;9.598;2023-07-20T01:05:13;10.60;;;7.70;;
80272;SDS011;69574;45.328;9.598;2023-07-20T01:07:43;12.75;;;7.93;;
80272;SDS011;69574;45.328;9.598;2023-07-20T01:10:20;10.93;;;8.00;;
80272;SDS011;69574;45.328;9.598;2023-07-20T01:12:49;12.02;;;7.93;;
80272;SDS011;69574;45.328;9.598;2023-07-20T01:15:15;11.50;;;7.32;;
80272;SDS011;69574;45.328;9.598;2023-07-20T01:17:41;15.07;;;7.95;;
80272;SDS011;69574;45.328;9.598;2023-07-20T01:20:07;12.10;;;7.65;;
80272;SDS011;69574;45.328;9.598;2023-07-20T01:22:46;10.95;;;7.45;;
80272;SDS011;69574;45.328;9.598;2023-07-20T01:25:21;14.15;;;8.38;;
80272;SDS011;69574;45.328;9.598;2023-07-20T01:27:54;10.90;;;7.43;;
80272;SDS011;69574;45.328;9.598;2023-07-20T01:30:43;12.10;;;8.15;;
80272;SDS011;69574;45.328;9.598;2023-07-20T01:33:13;10.55;;;6.90;;
80272;SDS011;69574;45.328;9.598;2023-07-20T01:35:41;12.45;;;7.35;;
80272;SDS011;69574;45.328;9.598;2023-07-20T01:38:07;14.52;;;7.47;;
80272;SDS011;69574;45.328;9.598;2023-07-20T01:40:34;11.75;;;7.93;;
80272;SDS011;69574;45.328;9.598;2023-07-20T01:42:59;12.48;;;8.45;;
80272;SDS011;69574;45.328;9.598;2023-07-20T01:45:25;12.95;;;7.63;;
80272;SDS011;69574;45.328;9.598;2023-07-20T01:47:52;13.63;;;7.40;;
80272;SDS011;69574;45.328;9.598;2023-07-20T01:50:19;12.57;;;7.68;;
80272;SDS011;69574;45.328;9.598;2023-07-20T01:52:45;13.00;;;8.02;;
80272;SDS011;69574;45.328;9.598;2023-07-20T01:55:10;11.38;;;8.38;;
80272;SDS011;69574;45.328;9.598;2023-07-20T01:57:36;11.18;;;7.97;;
80272;SDS011;69574;45.328;9.598;2023-07-20T02:00:02;12.77;;;7.53;;
80272;SDS011;69574;45.328;9.598;2023-07-20T02:02:28;12.18;;;7.78;;
80272;SDS011;69574;45.328;9.598;2023-07-20T02:04:54;11.65;;;8.18;;
80272;SDS011;69574;45.328;9.598;2023-07-20T02:07:21;10.75;;;8.65;;
80272;SDS011;69574;45.328;9.598;2023-07-20T02:09:47;13.85;;;8.48;;
80272;SDS011;69574;45.328;9.598;2023-07-20T02:12:12;14.27;;;8.85;;
80272;SDS011;69574;45.328;9.598;2023-07-20T02:14:38;12.05;;;7.85;;
80272;SDS011;69574;45.328;9.598;2023-07-20T02:17:04;11.48;;;8.55;;
80272;SDS011;69574;45.328;9.598;2023-07-20T02:19:30;11.60;;;8.65;;
80272;SDS011;69574;45.328;9.598;2023-07-20T02:21:56;12.77;;;8.73;;
80272;SDS011;69574;45.328;9.598;2023-07-20T02:24:23;14.70;;;9.20;;
80272;SDS011;69574;45.328;9.598;2023-07-20T02:26:50;14.68;;;8.75;;
80272;SDS011;69574;45.328;9.598;2023-07-20T02:29:16;13.40;;;9.10;;
80272;SDS011;69574;45.328;9.598;2023-07-20T02:31:41;16.05;;;9.68;;
80272;SDS011;69574;45.328;9.598;2023-07-20T02:34:08;10.60;;;8.18;;
80272;SDS011;69574;45.328;9.598;2023-07-20T02:36:34;12.10;;;9.57;;
80272;SDS011;69574;45.328;9.598;2023-07-20T02:39:00;14.00;;;8.98;;
80272;SDS011;69574;45.328;9.598;2023-07-20T02:41:29;14.45;;;9.00;;
80272;SDS011;69574;45.328;9.598;2023-07-20T02:43:55;12.25;;;9.02;;
80272;SDS011;69574;45.328;9.598;2023-07-20T02:46:22;15.13;;;8.95;;
80272;SDS011;69574;45.328;9.598;2023-07-20T02:48:47;13.82;;;9.02;;
80272;SDS011;69574;45.328;9.598;2023-07-20T02:51:13;15.02;;;9.32;;
80272;SDS011;69574;45.328;9.598;2023-07-20T02:53:39;12.35;;;9.05;;
80272;SDS011;69574;45.328;9.598;2023-07-20T02:56:04;13.43;;;8.45;;
80272;SDS011;69574;45.328;9.598;2023-07-20T02:58:33;13.50;;;9.15;;
80272;SDS011;69574;45.328;9.598;2023-07-20T03:01:02;14.05;;;9.73;;
80272;SDS011;69574;45.328;9.598;2023-07-20T03:03:27;11.88;;;8.55;;
80272;SDS011;69574;45.328;9.598;2023-07-20T03:05:53;13.57;;;9.43;;
80272;SDS011;69574;45.328;9.598;2023-07-20T03:08:21;13.35;;;8.98;;
80272;SDS011;69574;45.328;9.598;2023-07-20T03:10:46;12.70;;;9.68;;
80272;SDS011;69574;45.328;9.598;2023-07-20T03:13:12;12.85;;;9.07;;
80272;SDS011;69574;45.328;9.598;2023-07-20T03:15:40;12.98;;;9.32;;
80272;SDS011;69574;45.328;9.598;2023-07-20T03:18:06;13.77;;;9.52;;
80272;SDS011;69574;45.328;9.598;2023-07-20T03:20:32;13.38;;;9.75;;
80272;SDS011;69574;45.328;9.598;2023-07-20T03:22:58;13.98;;;9.48;;
80272;SDS011;69574;45.328;9.598;2023-07-20T03:25:24;15.43;;;9.85;;
80272;SDS011;69574;45.328;9.598;2023-07-20T03:27:49;15.82;;;10.27;;
80272;SDS011;69574;45.328;9.598;2023-07-20T03:30:15;17.20;;;9.63;;
80272;SDS011;69574;45.328;9.598;2023-07-20T03:32:42;14.68;;;10.02;;
80272;SDS011;69574;45.328;9.598;2023-07-20T03:35:08;14.60;;;10.75;;
80272;SDS011;69574;45.328;9.598;2023-07-20T03:37:34;13.93;;;10.07;;
80272;SDS011;69574;45.328;9.598;2023-07-20T03:40:01;13.48;;;10.10;;
80272;SDS011;69574;45.328;9.598;2023-07-20T03:42:28;12.98;;;10.25;;
80272;SDS011;69574;45.328;9.598;2023-07-20T03:44:53;15.65;;;10.63;;
80272;SDS011;69574;45.328;9.598;2023-07-20T03:47:19;12.98;;;10.07;;
80272;SDS011;69574;45.328;9.598;2023-07-20T03:49:46;16.38;;;10.85;;
80272;SDS011;69574;45.328;9.598;2023-07-20T03:52:12;16.65;;;11.27;;
80272;SDS011;69574;45.328;9.598;2023-07-20T03:54:37;15.00;;;11.15;;
80272;SDS011;69574;45.328;9.598;2023-07-20T03:57:03;16.92;;;11.80;;
80272;SDS011;69574;45.328;9.598;2023-07-20T03:59:29;15.60;;;10.77;;
80272;SDS011;69574;45.328;9.598;2023-07-20T04:01:55;17.40;;;11.18;;
80272;SDS011;69574;45.328;9.598;2023-07-20T04:04:20;17.33;;;11.25;;
80272;SDS011;69574;45.328;9.598;2023-07-20T04:06:48;17.50;;;11.65;;
80272;SDS011;69574;45.328;9.598;2023-07-20T04:09:13;16.08;;;11.02;;
80272;SDS011;69574;45.328;9.598;2023-07-20T04:11:39;17.65;;;10.50;;
80272;SDS011;69574;45.328;9.598;2023-07-20T04:16:31;13.75;;;10.32;;
80272;SDS011;69574;45.328;9.598;2023-07-20T04:18:57;14.70;;;10.52;;
80272;SDS011;69574;45.328;9.598;2023-07-20T04:21:25;15.25;;;11.38;;
80272;SDS011;69574;45.328;9.598;2023-07-20T04:23:52;15.48;;;10.90;;
80272;SDS011;69574;45.328;9.598;2023-07-20T04:26:18;16.05;;;11.40;;
80272;SDS011;69574;45.328;9.598;2023-07-20T04:28:44;16.70;;;11.50;;
80272;SDS011;69574;45.328;9.598;2023-07-20T04:31:10;14.00;;;11.93;;
80272;SDS011;69574;45.328;9.598;2023-07-20T04:33:36;17.63;;;13.15;;
80272;SDS011;69574;45.328;9.598;2023-07-20T04:36:02;16.42;;;12.57;;
80272;SDS011;69574;45.328;9.598;2023-07-20T04:38:28;19.65;;;13.05;;
80272;SDS011;69574;45.328;9.598;2023-07-20T04:40:55;16.98;;;12.25;;
80272;SDS011;69574;45.328;9.598;2023-07-20T04:43:21;16.40;;;12.63;;
80272;SDS011;69574;45.328;9.598;2023-07-20T04:45:47;16.73;;;12.57;;
80272;SDS011;69574;45.328;9.598;2023-07-20T04:48:13;17.63;;;12.52;;
80272;SDS011;69574;45.328;9.598;2023-07-20T04:50:40;59.03;;;14.65;;
80272;SDS011;69574;45.328;9.598;2023-07-20T04:53:05;25.92;;;13.27;;
80272;SDS011;69574;45.328;9.598;2023-07-20T04:55:31;24.98;;;12.88;;
80272;SDS011;69574;45.328;9.598;2023-07-20T04:58:00;38.17;;;14.52;;
80272;SDS011;69574;45.328;9.598;2023-07-20T05:00:26;50.35;;;13.93;;
80272;SDS011;69574;45.328;9.598;2023-07-20T05:02:52;28.83;;;13.43;;
80272;SDS011;69574;45.328;9.598;2023-07-20T05:05:17;20.95;;;12.52;;
80272;SDS011;69574;45.328;9.598;2023-07-20T05:07:43;21.88;;;12.57;;
80272;SDS011;69574;45.328;9.598;2023-07-20T05:10:09;18.40;;;12.57;;
80272;SDS011;69574;45.328;9.598;2023-07-20T05:12:35;25.40;;;12.73;;
80272;SDS011;69574;45.328;9.598;2023-07-20T05:15:02;19.98;;;13.00;;
80272;SDS011;69574;45.328;9.598;2023-07-20T05:17:28;16.33;;;12.25;;
80272;SDS011;69574;45.328;9.598;2023-07-20T05:19:54;15.52;;;12.77;;
80272;SDS011;69574;45.328;9.598;2023-07-20T05:22:20;17.23;;;13.20;;
80272;SDS011;69574;45.328;9.598;2023-07-20T05:24:46;18.98;;;12.93;;
80272;SDS011;69574;45.328;9.598;2023-07-20T05:27:12;18.50;;;13.35;;
80272;SDS011;69574;45.328;9.598;2023-07-20T05:29:37;34.78;;;13.75;;
80272;SDS011;69574;45.328;9.598;2023-07-20T05:32:05;20.05;;;12.77;;
80272;SDS011;69574;45.328;9.598;2023-07-20T05:34:31;19.63;;;12.57;;
80272;SDS011;69574;45.328;9.598;2023-07-20T05:36:57;20.38;;;12.70;;
80272;SDS011;69574;45.328;9.598;2023-07-20T05:39:23;17.10;;;12.02;;
80272;SDS011;69574;45.328;9.598;2023-07-20T05:41:48;16.83;;;13.20;;
80272;SDS011;69574;45.328;9.598;2023-07-20T05:44:14;48.53;;;15.80;;
80272;SDS011;69574;45.328;9.598;2023-07-20T05:46:39;23.75;;;14.32;;
80272;SDS011;69574;45.328;9.598;2023-07-20T05:49:06;19.33;;;13.95;;
80272;SDS011;69574;45.328;9.598;2023-07-20T05:51:32;20.95;;;14.07;;
80272;SDS011;69574;45.328;9.598;2023-07-20T05:53:57;19.35;;;13.68;;
80272;SDS011;69574;45.328;9.598;2023-07-20T05:56:23;21.23;;;14.73;;
80272;SDS011;69574;45.328;9.598;2023-07-20T05:58:48;19.98;;;14.80;;
80272;SDS011;69574;45.328;9.598;2023-07-20T06:03:40;18.90;;;14.40;;
80272;SDS011;69574;45.328;9.598;2023-07-20T06:06:07;17.95;;;13.70;;
80272;SDS011;69574;45.328;9.598;2023-07-20T06:08:34;18.42;;;13.60;;
80272;SDS011;69574;45.328;9.598;2023-07-20T06:11:00;18.05;;;12.68;;
80272;SDS011;69574;45.328;9.598;2023-07-20T06:13:25;45.35;;;14.55;;
80272;SDS011;69574;45.328;9.598;2023-07-20T06:15:51;17.27;;;11.75;;
80272;SDS011;69574;45.328;9.598;2023-07-20T06:18:17;15.98;;;12.55;;
80272;SDS011;69574;45.328;9.598;2023-07-20T06:20:44;18.23;;;12.27;;
80272;SDS011;69574;45.328;9.598;2023-07-20T06:23:14;17.85;;;11.18;;
80272;SDS011;69574;45.328;9.598;2023-07-20T06:25:40;18.20;;;11.52;;
80272;SDS011;69574;45.328;9.598;2023-07-20T06:28:06;18.30;;;11.48;;
80272;SDS011;69574;45.328;9.598;2023-07-20T06:30:33;16.70;;;10.90;;
80272;SDS011;69574;45.328;9.598;2023-07-20T06:32:59;14.68;;;9.95;;
80272;SDS011;69574;45.328;9.598;2023-07-20T06:35:25;16.38;;;10.30;;
80272;SDS011;69574;45.328;9.598;2023-07-20T06:37:51;17.05;;;11.55;;
80272;SDS011;69574;45.328;9.598;2023-07-20T06:40:18;17.88;;;12.10;;
80272;SDS011;69574;45.328;9.598;2023-07-20T06:42:44;14.73;;;10.35;;
80272;SDS011;69574;45.328;9.598;2023-07-20T06:45:09;16.85;;;10.88;;
80272;SDS011;69574;45.328;9.598;2023-07-20T06:47:37;14.43;;;11.10;;
80272;SDS011;69574;45.328;9.598;2023-07-20T06:50:03;46.10;;;14.45;;
80272;SDS011;69574;45.328;9.598;2023-07-20T06:52:29;20.02;;;11.15;;
80272;SDS011;69574;45.328;9.598;2023-07-20T06:54:54;21.00;;;10.73;;
80272;SDS011;69574;45.328;9.598;2023-07-20T06:57:21;28.48;;;11.40;;
80272;SDS011;69574;45.328;9.598;2023-07-20T06:59:47;29.20;;;11.68;;
80272;SDS011;69574;45.328;9.598;2023-07-20T07:02:13;21.60;;;11.40;;
80272;SDS011;69574;45.328;9.598;2023-07-20T07:04:39;21.10;;;11.15;;
80272;SDS011;69574;45.328;9.598;2023-07-20T07:07:05;18.33;;;11.00;;
80272;SDS011;69574;45.328;9.598;2023-07-20T07:09:31;14.07;;;10.60;;
80272;SDS011;69574;45.328;9.598;2023-07-20T07:11:56;16.08;;;10.80;;
80272;SDS011;69574;45.328;9.598;2023-07-20T07:14:23;16.17;;;10.75;;
80272;SDS011;69574;45.328;9.598;2023-07-20T07:16:49;13.98;;;10.98;;
80272;SDS011;69574;45.328;9.598;2023-07-20T07:19:15;15.43;;;10.80;;
80272;SDS011;69574;45.328;9.598;2023-07-20T07:21:40;20.10;;;11.13;;
80272;SDS011;69574;45.328;9.598;2023-07-20T07:24:06;17.58;;;12.00;;
80272;SDS011;69574;45.328;9.598;2023-07-20T07:26:32;18.35;;;11.35;;
80272;SDS011;69574;45.328;9.598;2023-07-20T07:28:58;16.90;;;10.52;;
80272;SDS011;69574;45.328;9.598;2023-07-20T07:31:26;14.38;;;10.48;;
80272;SDS011;69574;45.328;9.598;2023-07-20T07:33:51;17.27;;;10.90;;
80272;SDS011;69574;45.328;9.598;2023-07-20T07:36:17;14.45;;;11.10;;
80272;SDS011;69574;45.328;9.598;2023-07-20T07:38:42;15.82;;;11.05;;
80272;SDS011;69574;45.328;9.598;2023-07-20T07:41:08;13.00;;;10.43;;
80272;SDS011;69574;45.328;9.598;2023-07-20T07:43:34;20.40;;;10.45;;
80272;SDS011;69574;45.328;9.598;2023-07-20T07:46:00;12.93;;;9.75;;
80272;SDS011;69574;45.328;9.598;2023-07-20T07:48:27;15.40;;;10.45;;
80272;SDS011;69574;45.328;9.598;2023-07-20T07:50:53;14.35;;;9.30;;
80272;SDS011;69574;45.328;9.598;2023-07-20T07:53:19;48.67;;;13.00;;
80272;SDS011;69574;45.328;9.598;2023-07-20T07:55:45;22.60;;;10.18;;
80272;SDS011;69574;45.328;9.598;2023-07-20T07:58:11;23.45;;;10.40;;
80272;SDS011;69574;45.328;9.598;2023-07-20T08:00:36;15.77;;;9.88;;
80272;SDS011;69574;45.328;9.598;2023-07-20T08:03:02;25.13;;;10.18;;
80272;SDS011;69574;45.328;9.598;2023-07-20T08:05:29;16.17;;;9.95;;
80272;SDS011;69574;45.328;9.598;2023-07-20T08:07:54;14.98;;;10.43;;
80272;SDS011;69574;45.328;9.598;2023-07-20T08:10:20;13.38;;;9.93;;
80272;SDS011;69574;45.328;9.598;2023-07-20T08:12:45;12.30;;;9.30;;
80272;SDS011;69574;45.328;9.598;2023-07-20T08:15:11;12.55;;;8.38;;
80272;SDS011;69574;45.328;9.598;2023-07-20T08:17:39;16.95;;;9.70;;
80272;SDS011;69574;45.328;9.598;2023-07-20T08:20:05;12.77;;;8.73;;
80272;SDS011;69574;45.328;9.598;2023-07-20T08:22:33;14.68;;;8.82;;
80272;SDS011;69574;45.328;9.598;2023-07-20T08:24:58;12.10;;;8.05;;
80272;SDS011;69574;45.328;9.598;2023-07-20T08:27:24;16.88;;;9.30;;
80272;SDS011;69574;45.328;9.598;2023-07-20T08:29:50;12.23;;;7.78;;
80272;SDS011;69574;45.328;9.598;2023-07-20T08:32:15;12.95;;;7.57;;
80272;SDS011;69574;45.328;9.598;2023-07-20T08:34:41;11.88;;;7.72;;
80272;SDS011;69574;45.328;9.598;2023-07-20T08:37:07;11.82;;;8.45;;
80272;SDS011;69574;45.328;9.598;2023-07-20T08:39:36;11.85;;;7.60;;
80272;SDS011;69574;45.328;9.598;2023-07-20T08:42:02;12.82;;;7.93;;
80272;SDS011;69574;45.328;9.598;2023-07-20T08:44:31;13.82;;;7.35;;
80272;SDS011;69574;45.328;9.598;2023-07-20T08:46:57;12.50;;;8.25;;
80272;SDS011;69574;45.328;9.598;2023-07-20T08:49:24;13.80;;;7.90;;
80272;SDS011;69574;45.328;9.598;2023-07-20T08:51:49;12.77;;;6.80;;
80272;SDS011;69574;45.328;9.598;2023-07-20T08:54:17;11.10;;;7.65;;
80272;SDS011;69574;45.328;9.598;2023-07-20T08:56:44;10.80;;;7.22;;
80272;SDS011;69574;45.328;9.598;2023-07-20T08:59:10;14.05;;;8.68;;
80272;SDS011;69574;45.328;9.598;2023-07-20T09:01:37;68.55;;;12.63;;
80272;SDS011;69574;45.328;9.598;2023-07-20T09:04:04;21.42;;;8.70;;
80272;SDS011;69574;45.328;9.598;2023-07-20T09:06:30;22.20;;;8.18;;
80272;SDS011;69574;45.328;9.598;2023-07-20T09:08:55;15.95;;;8.68;;
80272;SDS011;69574;45.328;9.598;2023-07-20T09:11:21;15.18;;;8.60;;
80272;SDS011;69574;45.328;9.598;2023-07-20T09:13:48;12.02;;;8.70;;
80272;SDS011;69574;45.328;9.598;2023-07-20T09:16:27;12.23;;;7.90;;
80272;SDS011;69574;45.328;9.598;2023-07-20T09:18:53;11.35;;;8.15;;
80272;SDS011;69574;45.328;9.598;2023-07-20T09:21:19;13.73;;;8.60;;
80272;SDS011;69574;45.328;9.598;2023-07-20T09:23:44;11.98;;;8.18;;
80272;SDS011;69574;45.328;9.598;2023-07-20T09:26:10;11.65;;;8.23;;
80272;SDS011;69574;45.328;9.598;2023-07-20T09:28:41;13.10;;;8.27;;
80272;SDS011;69574;45.328;9.598;2023-07-20T09:31:14;12.63;;;7.72;;
80272;SDS011;69574;45.328;9.598;2023-07-20T09:33:41;12.60;;;7.68;;
80272;SDS011;69574;45.328;9.598;2023-07-20T09:36:07;14.77;;;7.85;;
80272;SDS011;69574;45.328;9.598;2023-07-20T09:38:34;10.85;;;8.32;;
80272;SDS011;69574;45.328;9.598;2023-07-20T09:41:00;14.32;;;8.07;;
80272;SDS011;69574;45.328;9.598;2023-07-20T09:43:28;11.75;;;7.70;;
80272;SDS011;69574;45.328;9.598;2023-07-20T09:45:57;10.73;;;7.60;;
80272;SDS011;69574;45.328;9.598;2023-07-20T09:48:24;11.68;;;7.57;;
80272;SDS011;69574;45.328;9.598;2023-07-20T09:50:52;11.45;;;7.70;;
80272;SDS011;69574;45.328;9.598;2023-07-20T09:53:18;11.07;;;7.15;;
80272;SDS011;69574;45.328;9.598;2023-07-20T09:55:44;12.50;;;8.13;;
80272;SDS011;69574;45.328;9.598;2023-07-20T09:58:10;11.63;;;7.38;;
80272;SDS011;69574;45.328;9.598;2023-07-20T10:00:36;14.75;;;7.78;;
80272;SDS011;69574;45.328;9.598;2023-07-20T10:03:01;13.48;;;7.60;;
80272;SDS011;69574;45.328;9.598;2023-07-20T10:05:30;12.65;;;7.47;;
80272;SDS011;69574;45.328;9.598;2023-07-20T10:07:56;12.43;;;7.50;;
80272;SDS011;69574;45.328;9.598;2023-07-20T10:10:23;13.93;;;8.00;;
80272;SDS011;69574;45.328;9.598;2023-07-20T10:12:48;10.65;;;7.35;;
80272;SDS011;69574;45.328;9.598;2023-07-20T10:15:16;12.43;;;7.32;;
80272;SDS011;69574;45.328;9.598;2023-07-20T10:17:45;11.73;;;7.82;;
80272;SDS011;69574;45.328;9.598;2023-07-20T10:20:15;10.95;;;7.30;;
80272;SDS011;69574;45.328;9.598;2023-07-20T10:22:43;14.88;;;7.20;;
80272;SDS011;69574;45.328;9.598;2023-07-20T10:25:10;10.48;;;6.85;;
80272;SDS011;69574;45.328;9.598;2023-07-20T10:27:35;15.52;;;7.47;;
80272;SDS011;69574;45.328;9.598;2023-07-20T10:30:01;15.60;;;7.35;;
80272;SDS011;69574;45.328;9.598;2023-07-20T10:32:28;13.75;;;7.07;;
80272;SDS011;69574;45.328;9.598;2023-07-20T10:34:55;11.82;;;7.20;;
80272;SDS011;69574;45.328;9.598;2023-07-20T10:42:48;12.55;;;7.13;;
80272;SDS011;69574;45.328;9.598;2023-07-20T10:45:14;11.60;;;7.15;;
80272;SDS011;69574;45.328;9.598;2023-07-20T10:47:44;12.50;;;7.15;;
80272;SDS011;69574;45.328;9.598;2023-07-20T10:50:10;12.82;;;7.10;;
80272;SDS011;69574;45.328;9.598;2023-07-20T10:52:37;9.45;;;7.15;;
80272;SDS011;69574;45.328;9.598;2023-07-20T10:55:09;11.02;;;7.30;;
80272;SDS011;69574;45.328;9.598;2023-07-20T10:57:35;10.50;;;6.88;;
80272;SDS011;69574;45.328;9.598;2023-07-20T11:00:12;10.35;;;6.57;;
80272;SDS011;69574;45.328;9.598;2023-07-20T11:05:04;9.43;;;6.67;;
80272;SDS011;69574;45.328;9.598;2023-07-20T11:07:38;9.73;;;6.35;;
80272;SDS011;69574;45.328;9.598;2023-07-20T11:10:12;10.15;;;6.78;;
80272;SDS011;69574;45.328;9.598;2023-07-20T11:12:38;9.93;;;7.03;;
80272;SDS011;69574;45.328;9.598;2023-07-20T11:17:31;9.40;;;6.40;;
80272;SDS011;69574;45.328;9.598;2023-07-20T11:19:57;12.45;;;6.50;;
80272;SDS011;69574;45.328;9.598;2023-07-20T11:22:23;11.88;;;6.60;;
80272;SDS011;69574;45.328;9.598;2023-07-20T11:27:17;11.50;;;6.50;;
80272;SDS011;69574;45.328;9.598;2023-07-20T11:29:47;12.90;;;7.25;;
80272;SDS011;69574;45.328;9.598;2023-07-20T11:34:39;11.00;;;6.27;;
80272;SDS011;69574;45.328;9.598;2023-07-20T11:37:05;10.60;;;6.50;;
80272;SDS011;69574;45.328;9.598;2023-07-20T11:39:31;11.40;;;7.03;;
80272;SDS011;69574;45.328;9.598;2023-07-20T11:41:57;11.48;;;6.38;;
80272;SDS011;69574;45.328;9.598;2023-07-20T11:46:53;9.82;;;7.40;;
80272;SDS011;69574;45.328;9.598;2023-07-20T11:49:24;8.70;;;6.10;;
80272;SDS011;69574;45.328;9.598;2023-07-20T11:51:51;8.93;;;6.57;;
80272;SDS011;69574;45.328;9.598;2023-07-20T11:54:17;12.38;;;6.90;;
80272;SDS011;69574;45.328;9.598;2023-07-20T11:59:08;11.03;;;7.20;;
80272;SDS011;69574;45.328;9.598;2023-07-20T12:01:33;11.25;;;6.30;;
80272;SDS011;69574;45.328;9.598;2023-07-20T12:04:00;12.02;;;7.53;;
80272;SDS011;69574;45.328;9.598;2023-07-20T12:06:27;12.95;;;7.45;;
80272;SDS011;69574;45.328;9.598;2023-07-20T12:11:31;10.73;;;6.97;;
80272;SDS011;69574;45.328;9.598;2023-07-20T12:13:57;13.55;;;7.40;;
80272;SDS011;69574;45.328;9.598;2023-07-20T12:18:48;12.43;;;7.97;;
80272;SDS011;69574;45.328;9.598;2023-07-20T12:21:14;11.90;;;7.72;;
80272;SDS011;69574;45.328;9.598;2023-07-20T12:26:07;9.77;;;7.27;;
80272;SDS011;69574;45.328;9.598;2023-07-20T12:28:38;10.88;;;7.93;;
80272;SDS011;69574;45.328;9.598;2023-07-20T12:31:03;9.90;;;7.25;;
80272;SDS011;69574;45.328;9.598;2023-07-20T12:35:54;12.37;;;7.33;;
80272;SDS011;69574;45.328;9.598;2023-07-20T12:38:23;11.25;;;7.18;;
80272;SDS011;69574;45.328;9.598;2023-07-20T12:43:14;17.03;;;7.00;;
80272;SDS011;69574;45.328;9.598;2023-07-20T12:45:41;14.80;;;7.65;;
80272;SDS011;69574;45.328;9.598;2023-07-20T12:48:07;10.20;;;7.10;;
80272;SDS011;69574;45.328;9.598;2023-07-20T12:52:58;14.63;;;7.03;;
80272;SDS011;69574;45.328;9.598;2023-07-20T12:57:48;11.97;;;6.90;;
80272;SDS011;69574;45.328;9.598;2023-07-20T13:00:14;11.85;;;6.90;;
80272;SDS011;69574;45.328;9.598;2023-07-20T13:02:42;10.50;;;7.10;;
80272;SDS011;69574;45.328;9.598;2023-07-20T13:05:08;9.93;;;6.93;;
80272;SDS011;69574;45.328;9.598;2023-07-20T13:07:34;11.50;;;6.55;;
80272;SDS011;69574;45.328;9.598;2023-07-20T13:10:01;12.70;;;6.93;;
80272;SDS011;69574;45.328;9.598;2023-07-20T13:12:27;9.55;;;6.85;;
80272;SDS011;69574;45.328;9.598;2023-07-20T13:14:53;10.27;;;6.05;;
80272;SDS011;69574;45.328;9.598;2023-07-20T13:17:19;12.45;;;6.78;;
80272;SDS011;69574;45.328;9.598;2023-07-20T13:19:46;9.93;;;6.18;;
80272;SDS011;69574;45.328;9.598;2023-07-20T13:22:11;12.15;;;6.72;;
80272;SDS011;69574;45.328;9.598;2023-07-20T13:24:37;10.82;;;6.20;;
80272;SDS011;69574;45.328;9.598;2023-07-20T13:27:02;32.15;;;7.78;;
80272;SDS011;69574;45.328;9.598;2023-07-20T13:29:28;9.93;;;6.47;;
80272;SDS011;69574;45.328;9.598;2023-07-20T13:31:54;11.30;;;6.25;;
80272;SDS011;69574;45.328;9.598;2023-07-20T13:34:19;12.63;;;6.70;;
80272;SDS011;69574;45.328;9.598;2023-07-20T13:36:46;10.50;;;6.72;;
80272;SDS011;69574;45.328;9.598;2023-07-20T13:39:12;10.38;;;6.90;;
80272;SDS011;69574;45.328;9.598;2023-07-20T13:41:37;9.05;;;6.45;;
80272;SDS011;69574;45.328;9.598;2023-07-20T13:44:03;9.18;;;6.50;;
80272;SDS011;69574;45.328;9.598;2023-07-20T13:46:29;63.50;;;10.30;;
80272;SDS011;69574;45.328;9.598;2023-07-20T13:48:54;20.65;;;7.65;;
80272;SDS011;69574;45.328;9.598;2023-07-20T13:51:20;14.02;;;7.32;;
80272;SDS011;69574;45.328;9.598;2023-07-20T13:53:47;14.25;;;6.88;;
80272;SDS011;69574;45.328;9.598;2023-07-20T13:56:13;11.98;;;7.15;;
80272;SDS011;69574;45.328;9.598;2023-07-20T13:58:39;15.10;;;6.80;;
80272;SDS011;69574;45.328;9.598;2023-07-20T14:01:04;11.50;;;6.65;;
80272;SDS011;69574;45.328;9.598;2023-07-20T14:03:30;9.23;;;6.47;;
80272;SDS011;69574;45.328;9.598;2023-07-20T14:05:55;9.80;;;6.95;;
80272;SDS011;69574;45.328;9.598;2023-07-20T14:08:21;13.10;;;6.68;;
80272;SDS011;69574;45.328;9.598;2023-07-20T14:10:48;39.08;;;8.98;;
80272;SDS011;69574;45.328;9.598;2023-07-20T14:13:14;18.02;;;7.20;;
80272;SDS011;69574;45.328;9.598;2023-07-20T14:15:39;11.60;;;6.65;;
80272;SDS011;69574;45.328;9.598;2023-07-20T14:18:05;11.63;;;7.25;;
80272;SDS011;69574;45.328;9.598;2023-07-20T14:20:31;12.38;;;7.80;;
80272;SDS011;69574;45.328;9.598;2023-07-20T14:22:56;13.18;;;7.90;;
80272;SDS011;69574;45.328;9.598;2023-07-20T14:25:22;9.43;;;7.00;;
80272;SDS011;69574;45.328;9.598;2023-07-20T14:27:49;15.95;;;7.90;;
80272;SDS011;69574;45.328;9.598;2023-07-20T14:30:14;39.47;;;9.40;;
80272;SDS011;69574;45.328;9.598;2023-07-20T14:32:40;20.45;;;7.78;;
80272;SDS011;69574;45.328;9.598;2023-07-20T14:35:06;25.08;;;8.13;;
80272;SDS011;69574;45.328;9.598;2023-07-20T14:37:31;18.38;;;8.15;;
80272;SDS011;69574;45.328;9.598;2023-07-20T14:39:57;21.60;;;8.18;;
80272;SDS011;69574;45.328;9.598;2023-07-20T14:42:22;18.05;;;8.57;;
80272;SDS011;69574;45.328;9.598;2023-07-20T14:47:15;13.23;;;7.77;;
80272;SDS011;69574;45.328;9.598;2023-07-20T14:49:40;12.02;;;7.60;;
80272;SDS011;69574;45.328;9.598;2023-07-20T14:54:31;11.33;;;8.27;;
80272;SDS011;69574;45.328;9.598;2023-07-20T14:59:22;14.50;;;8.02;;
80272;SDS011;69574;45.328;9.598;2023-07-20T15:04:14;13.30;;;8.47;;
80272;SDS011;69574;45.328;9.598;2023-07-20T15:06:40;15.88;;;8.75;;
80272;SDS011;69574;45.328;9.598;2023-07-20T15:11:31;12.07;;;7.57;;
80272;SDS011;69574;45.328;9.598;2023-07-20T15:16:21;12.03;;;7.53;;
80272;SDS011;69574;45.328;9.598;2023-07-20T15:18:47;11.70;;;7.57;;
80272;SDS011;69574;45.328;9.598;2023-07-20T15:21:14;12.48;;;7.45;;
80272;SDS011;69574;45.328;9.598;2023-07-20T15:23:39;13.43;;;7.95;;